sensor_id;sensor_type;location;lat;lon;timestamp;P1;durP1;ratioP1;P2;durP2;ratioP2
22468;SDS011;11401;50.792;4.352;2023-09-19T00:00:44;5.05;;;2.20;;
22468;SDS011;11401;50.792;4.352;2023-09-19T00:03:14;6.72;;;2.30;;
22468;SDS011;11401;50.792;4.352;2023-09-19T00:05:41;5.22;;;2.22;;
22468;SDS011;11401;50.792;4.352;2023-09-19T00:08:12;4.80;;;1.92;;
22468;SDS011;11401;50.792;4.352;2023-09-19T00:10:40;7.00;;;2.30;;
22468;SDS011;11401;50.792;4.352;2023-09-19T00:13:09;4.55;;;1.83;;
22468;SDS011;11401;50.792;4.352;2023-09-19T00:15:44;6.80;;;2.28;;
22468;SDS011;11401;50.792;4.352;2023-09-19T00:18:16;6.28;;;2.40;;
22468;SDS011;11401;50.792;4.352;2023-09-19T00:20:48;7.47;;;2.03;;
22468;SDS011;11401;50.792;4.352;2023-09-19T00:23:18;6.07;;;2.70;;
22468;SDS011;11401;50.792;4.352;2023-09-19T00:25:46;6.93;;;2.30;;
22468;SDS011;11401;50.792;4.352;2023-09-19T00:28:13;12.75;;;2.75;;
22468;SDS011;11401;50.792;4.352;2023-09-19T00:30:43;6.35;;;2.42;;
22468;SDS011;11401;50.792;4.352;2023-09-19T00:33:11;6.63;;;2.00;;
22468;SDS011;11401;50.792;4.352;2023-09-19T00:35:46;8.40;;;2.40;;
22468;SDS011;11401;50.792;4.352;2023-09-19T00:38:21;7.55;;;2.03;;
22468;SDS011;11401;50.792;4.352;2023-09-19T00:40:51;8.20;;;2.10;;
22468;SDS011;11401;50.792;4.352;2023-09-19T00:43:18;6.53;;;1.98;;
22468;SDS011;11401;50.792;4.352;2023-09-19T00:45:47;6.68;;;2.50;;
22468;SDS011;11401;50.792;4.352;2023-09-19T00:48:18;8.77;;;2.25;;
22468;SDS011;11401;50.792;4.352;2023-09-19T00:50:47;8.43;;;3.30;;
22468;SDS011;11401;50.792;4.352;2023-09-19T00:53:17;8.50;;;2.65;;
22468;SDS011;11401;50.792;4.352;2023-09-19T00:55:46;7.82;;;2.92;;
22468;SDS011;11401;50.792;4.352;2023-09-19T00:58:15;9.27;;;2.30;;
22468;SDS011;11401;50.792;4.352;2023-09-19T01:00:44;11.35;;;2.72;;
22468;SDS011;11401;50.792;4.352;2023-09-19T01:03:12;8.55;;;2.20;;
22468;SDS011;11401;50.792;4.352;2023-09-19T01:05:40;5.90;;;2.17;;
22468;SDS011;11401;50.792;4.352;2023-09-19T01:08:09;6.65;;;2.00;;
22468;SDS011;11401;50.792;4.352;2023-09-19T01:10:40;6.97;;;2.05;;
22468;SDS011;11401;50.792;4.352;2023-09-19T01:13:21;8.57;;;2.40;;
22468;SDS011;11401;50.792;4.352;2023-09-19T01:16:03;16.35;;;2.75;;
22468;SDS011;11401;50.792;4.352;2023-09-19T01:21:37;6.65;;;2.05;;
22468;SDS011;11401;50.792;4.352;2023-09-19T01:30:10;10.30;;;2.38;;
22468;SDS011;11401;50.792;4.352;2023-09-19T01:32:39;8.65;;;2.40;;
22468;SDS011;11401;50.792;4.352;2023-09-19T01:35:07;6.00;;;2.15;;
22468;SDS011;11401;50.792;4.352;2023-09-19T01:37:39;5.25;;;2.40;;
22468;SDS011;11401;50.792;4.352;2023-09-19T01:40:11;5.60;;;2.13;;
22468;SDS011;11401;50.792;4.352;2023-09-19T01:43:09;5.40;;;2.13;;
22468;SDS011;11401;50.792;4.352;2023-09-19T01:51:10;11.48;;;2.33;;
22468;SDS011;11401;50.792;4.352;2023-09-19T01:53:50;8.40;;;2.60;;
22468;SDS011;11401;50.792;4.352;2023-09-19T01:56:25;10.48;;;2.22;;
22468;SDS011;11401;50.792;4.352;2023-09-19T01:59:21;8.98;;;2.28;;
22468;SDS011;11401;50.792;4.352;2023-09-19T02:01:51;7.55;;;1.83;;
22468;SDS011;11401;50.792;4.352;2023-09-19T02:04:19;7.22;;;2.13;;
22468;SDS011;11401;50.792;4.352;2023-09-19T02:06:46;7.65;;;2.33;;
22468;SDS011;11401;50.792;4.352;2023-09-19T02:09:14;7.00;;;2.25;;
22468;SDS011;11401;50.792;4.352;2023-09-19T02:11:41;7.78;;;2.35;;
22468;SDS011;11401;50.792;4.352;2023-09-19T02:14:08;7.53;;;2.08;;
22468;SDS011;11401;50.792;4.352;2023-09-19T02:16:36;6.38;;;2.67;;
22468;SDS011;11401;50.792;4.352;2023-09-19T02:19:04;10.93;;;2.20;;
22468;SDS011;11401;50.792;4.352;2023-09-19T02:21:32;11.23;;;2.67;;
22468;SDS011;11401;50.792;4.352;2023-09-19T02:23:59;9.52;;;3.17;;
22468;SDS011;11401;50.792;4.352;2023-09-19T02:26:27;6.03;;;2.15;;
22468;SDS011;11401;50.792;4.352;2023-09-19T02:28:54;7.93;;;2.40;;
22468;SDS011;11401;50.792;4.352;2023-09-19T02:31:22;9.63;;;2.75;;
22468;SDS011;11401;50.792;4.352;2023-09-19T02:33:49;7.38;;;2.67;;
22468;SDS011;11401;50.792;4.352;2023-09-19T02:36:16;10.68;;;2.78;;
22468;SDS011;11401;50.792;4.352;2023-09-19T02:38:44;8.15;;;2.78;;
22468;SDS011;11401;50.792;4.352;2023-09-19T02:41:11;12.48;;;3.80;;
22468;SDS011;11401;50.792;4.352;2023-09-19T02:43:38;6.53;;;2.55;;
22468;SDS011;11401;50.792;4.352;2023-09-19T02:46:06;7.85;;;2.72;;
22468;SDS011;11401;50.792;4.352;2023-09-19T02:48:33;10.57;;;3.08;;
22468;SDS011;11401;50.792;4.352;2023-09-19T02:51:02;8.45;;;2.50;;
22468;SDS011;11401;50.792;4.352;2023-09-19T02:53:31;10.38;;;2.80;;
22468;SDS011;11401;50.792;4.352;2023-09-19T02:55:59;11.30;;;3.08;;
22468;SDS011;11401;50.792;4.352;2023-09-19T02:58:25;10.55;;;2.85;;
22468;SDS011;11401;50.792;4.352;2023-09-19T03:00:54;6.25;;;2.22;;
22468;SDS011;11401;50.792;4.352;2023-09-19T03:03:23;7.20;;;2.45;;
22468;SDS011;11401;50.792;4.352;2023-09-19T03:05:50;9.30;;;2.22;;
22468;SDS011;11401;50.792;4.352;2023-09-19T03:08:21;10.13;;;2.53;;
22468;SDS011;11401;50.792;4.352;2023-09-19T03:10:48;8.35;;;2.22;;
22468;SDS011;11401;50.792;4.352;2023-09-19T03:13:16;6.13;;;2.47;;
22468;SDS011;11401;50.792;4.352;2023-09-19T03:15:43;8.13;;;2.20;;
22468;SDS011;11401;50.792;4.352;2023-09-19T03:18:15;8.27;;;2.22;;
22468;SDS011;11401;50.792;4.352;2023-09-19T03:20:42;5.60;;;2.15;;
22468;SDS011;11401;50.792;4.352;2023-09-19T03:23:09;7.00;;;2.47;;
22468;SDS011;11401;50.792;4.352;2023-09-19T03:25:36;11.85;;;2.33;;
22468;SDS011;11401;50.792;4.352;2023-09-19T03:28:03;9.20;;;2.45;;
22468;SDS011;11401;50.792;4.352;2023-09-19T03:30:34;8.15;;;2.30;;
22468;SDS011;11401;50.792;4.352;2023-09-19T03:33:03;8.88;;;2.38;;
22468;SDS011;11401;50.792;4.352;2023-09-19T03:35:33;6.35;;;2.00;;
22468;SDS011;11401;50.792;4.352;2023-09-19T03:38:01;9.45;;;2.70;;
22468;SDS011;11401;50.792;4.352;2023-09-19T03:40:29;6.00;;;2.10;;
22468;SDS011;11401;50.792;4.352;2023-09-19T03:42:58;8.50;;;2.72;;
22468;SDS011;11401;50.792;4.352;2023-09-19T03:45:29;8.25;;;2.50;;
22468;SDS011;11401;50.792;4.352;2023-09-19T03:47:56;6.50;;;2.60;;
22468;SDS011;11401;50.792;4.352;2023-09-19T03:50:24;8.40;;;2.83;;
22468;SDS011;11401;50.792;4.352;2023-09-19T03:52:55;8.00;;;2.30;;
22468;SDS011;11401;50.792;4.352;2023-09-19T03:55:24;8.82;;;3.28;;
22468;SDS011;11401;50.792;4.352;2023-09-19T03:57:51;7.68;;;2.15;;
22468;SDS011;11401;50.792;4.352;2023-09-19T04:00:19;7.15;;;2.58;;
22468;SDS011;11401;50.792;4.352;2023-09-19T04:02:48;9.30;;;2.50;;
22468;SDS011;11401;50.792;4.352;2023-09-19T04:05:16;9.60;;;2.28;;
22468;SDS011;11401;50.792;4.352;2023-09-19T04:07:44;10.07;;;2.63;;
22468;SDS011;11401;50.792;4.352;2023-09-19T04:10:12;12.15;;;2.92;;
22468;SDS011;11401;50.792;4.352;2023-09-19T04:12:40;7.82;;;2.45;;
22468;SDS011;11401;50.792;4.352;2023-09-19T04:15:07;9.35;;;2.75;;
22468;SDS011;11401;50.792;4.352;2023-09-19T04:17:35;8.82;;;2.53;;
22468;SDS011;11401;50.792;4.352;2023-09-19T04:20:03;7.47;;;2.28;;
22468;SDS011;11401;50.792;4.352;2023-09-19T04:22:34;8.45;;;2.05;;
22468;SDS011;11401;50.792;4.352;2023-09-19T04:25:01;5.43;;;1.73;;
22468;SDS011;11401;50.792;4.352;2023-09-19T04:27:28;8.32;;;2.22;;
22468;SDS011;11401;50.792;4.352;2023-09-19T04:29:55;6.35;;;2.13;;
22468;SDS011;11401;50.792;4.352;2023-09-19T04:32:28;7.65;;;2.45;;
22468;SDS011;11401;50.792;4.352;2023-09-19T04:34:55;6.47;;;2.40;;
22468;SDS011;11401;50.792;4.352;2023-09-19T04:37:26;10.05;;;2.22;;
22468;SDS011;11401;50.792;4.352;2023-09-19T04:39:53;7.97;;;2.47;;
22468;SDS011;11401;50.792;4.352;2023-09-19T04:42:20;8.52;;;2.53;;
22468;SDS011;11401;50.792;4.352;2023-09-19T04:44:48;4.55;;;1.75;;
22468;SDS011;11401;50.792;4.352;2023-09-19T04:47:16;7.07;;;2.30;;
22468;SDS011;11401;50.792;4.352;2023-09-19T04:49:43;6.82;;;2.72;;
22468;SDS011;11401;50.792;4.352;2023-09-19T04:52:10;8.27;;;2.20;;
22468;SDS011;11401;50.792;4.352;2023-09-19T04:54:37;5.18;;;1.90;;
22468;SDS011;11401;50.792;4.352;2023-09-19T04:57:04;6.85;;;2.55;;
22468;SDS011;11401;50.792;4.352;2023-09-19T04:59:32;7.07;;;2.40;;
22468;SDS011;11401;50.792;4.352;2023-09-19T05:01:59;8.20;;;2.53;;
22468;SDS011;11401;50.792;4.352;2023-09-19T05:04:26;10.48;;;2.58;;
22468;SDS011;11401;50.792;4.352;2023-09-19T05:06:53;7.78;;;2.20;;
22468;SDS011;11401;50.792;4.352;2023-09-19T05:09:20;11.25;;;2.95;;
22468;SDS011;11401;50.792;4.352;2023-09-19T05:11:47;6.93;;;1.83;;
22468;SDS011;11401;50.792;4.352;2023-09-19T05:14:15;13.35;;;2.42;;
22468;SDS011;11401;50.792;4.352;2023-09-19T05:16:42;6.68;;;1.98;;
22468;SDS011;11401;50.792;4.352;2023-09-19T05:19:09;9.90;;;2.95;;
22468;SDS011;11401;50.792;4.352;2023-09-19T05:21:38;13.13;;;2.67;;
22468;SDS011;11401;50.792;4.352;2023-09-19T05:24:05;6.20;;;2.95;;
22468;SDS011;11401;50.792;4.352;2023-09-19T05:26:36;10.73;;;2.97;;
22468;SDS011;11401;50.792;4.352;2023-09-19T05:29:03;8.02;;;2.25;;
22468;SDS011;11401;50.792;4.352;2023-09-19T05:31:31;10.70;;;2.30;;
22468;SDS011;11401;50.792;4.352;2023-09-19T05:33:59;9.90;;;2.40;;
22468;SDS011;11401;50.792;4.352;2023-09-19T05:36:27;11.45;;;2.63;;
22468;SDS011;11401;50.792;4.352;2023-09-19T05:38:56;4.40;;;1.92;;
22468;SDS011;11401;50.792;4.352;2023-09-19T05:41:23;9.43;;;2.60;;
22468;SDS011;11401;50.792;4.352;2023-09-19T05:43:50;10.90;;;2.50;;
22468;SDS011;11401;50.792;4.352;2023-09-19T05:46:17;6.00;;;2.53;;
22468;SDS011;11401;50.792;4.352;2023-09-19T05:48:44;6.78;;;2.30;;
22468;SDS011;11401;50.792;4.352;2023-09-19T05:51:16;9.23;;;2.58;;
22468;SDS011;11401;50.792;4.352;2023-09-19T05:53:44;7.82;;;2.63;;
22468;SDS011;11401;50.792;4.352;2023-09-19T05:56:14;7.97;;;2.53;;
22468;SDS011;11401;50.792;4.352;2023-09-19T05:58:41;8.43;;;1.98;;
22468;SDS011;11401;50.792;4.352;2023-09-19T06:01:10;9.23;;;2.33;;
22468;SDS011;11401;50.792;4.352;2023-09-19T06:03:37;8.27;;;2.80;;
22468;SDS011;11401;50.792;4.352;2023-09-19T06:06:05;5.72;;;2.03;;
22468;SDS011;11401;50.792;4.352;2023-09-19T06:08:32;11.30;;;2.40;;
22468;SDS011;11401;50.792;4.352;2023-09-19T06:11:00;6.55;;;2.35;;
22468;SDS011;11401;50.792;4.352;2023-09-19T06:13:30;7.10;;;2.00;;
22468;SDS011;11401;50.792;4.352;2023-09-19T06:16:00;8.70;;;2.97;;
22468;SDS011;11401;50.792;4.352;2023-09-19T06:18:32;6.50;;;2.17;;
22468;SDS011;11401;50.792;4.352;2023-09-19T06:21:02;12.95;;;2.67;;
22468;SDS011;11401;50.792;4.352;2023-09-19T06:23:34;8.13;;;2.42;;
22468;SDS011;11401;50.792;4.352;2023-09-19T06:26:01;7.55;;;2.05;;
22468;SDS011;11401;50.792;4.352;2023-09-19T06:28:33;6.55;;;2.40;;
22468;SDS011;11401;50.792;4.352;2023-09-19T06:31:01;5.82;;;2.30;;
22468;SDS011;11401;50.792;4.352;2023-09-19T06:33:29;9.13;;;2.00;;
22468;SDS011;11401;50.792;4.352;2023-09-19T06:35:58;4.93;;;1.77;;
22468;SDS011;11401;50.792;4.352;2023-09-19T15:36:12;4.53;;;1.20;;
22468;SDS011;11401;50.792;4.352;2023-09-19T15:41:33;4.53;;;1.50;;
22468;SDS011;11401;50.792;4.352;2023-09-19T15:44:11;5.28;;;2.22;;
22468;SDS011;11401;50.792;4.352;2023-09-19T15:46:40;4.30;;;1.50;;
22468;SDS011;11401;50.792;4.352;2023-09-19T15:49:08;3.63;;;1.50;;
22468;SDS011;11401;50.792;4.352;2023-09-19T15:51:35;3.30;;;1.77;;
22468;SDS011;11401;50.792;4.352;2023-09-19T15:56:43;7.55;;;1.40;;
22468;SDS011;11401;50.792;4.352;2023-09-19T15:59:12;5.22;;;1.73;;
22468;SDS011;11401;50.792;4.352;2023-09-19T16:01:40;6.35;;;1.83;;
22468;SDS011;11401;50.792;4.352;2023-09-19T16:04:10;6.93;;;1.88;;
22468;SDS011;11401;50.792;4.352;2023-09-19T16:06:39;2.47;;;1.30;;
22468;SDS011;11401;50.792;4.352;2023-09-19T16:09:08;5.82;;;1.83;;
22468;SDS011;11401;50.792;4.352;2023-09-19T16:11:37;5.18;;;1.50;;
22468;SDS011;11401;50.792;4.352;2023-09-19T16:14:04;3.28;;;1.38;;
22468;SDS011;11401;50.792;4.352;2023-09-19T16:16:37;3.65;;;1.45;;
22468;SDS011;11401;50.792;4.352;2023-09-19T16:19:04;4.88;;;1.40;;
22468;SDS011;11401;50.792;4.352;2023-09-19T16:21:36;3.40;;;1.35;;
22468;SDS011;11401;50.792;4.352;2023-09-19T16:24:06;7.78;;;1.55;;
22468;SDS011;11401;50.792;4.352;2023-09-19T16:26:36;3.95;;;1.23;;
22468;SDS011;11401;50.792;4.352;2023-09-19T16:29:04;4.30;;;1.60;;
22468;SDS011;11401;50.792;4.352;2023-09-19T16:31:31;7.55;;;1.40;;
22468;SDS011;11401;50.792;4.352;2023-09-19T16:34:02;3.75;;;1.85;;
22468;SDS011;11401;50.792;4.352;2023-09-19T16:36:29;2.97;;;2.10;;
22468;SDS011;11401;50.792;4.352;2023-09-19T16:38:58;5.13;;;2.00;;
22468;SDS011;11401;50.792;4.352;2023-09-19T16:41:26;4.95;;;1.80;;
22468;SDS011;11401;50.792;4.352;2023-09-19T16:43:53;4.60;;;1.48;;
22468;SDS011;11401;50.792;4.352;2023-09-19T16:46:21;5.70;;;1.88;;
22468;SDS011;11401;50.792;4.352;2023-09-19T16:48:48;6.28;;;1.40;;
22468;SDS011;11401;50.792;4.352;2023-09-19T16:51:20;5.22;;;1.73;;
22468;SDS011;11401;50.792;4.352;2023-09-19T16:53:47;2.58;;;1.48;;
22468;SDS011;11401;50.792;4.352;2023-09-19T16:56:19;5.78;;;1.75;;
22468;SDS011;11401;50.792;4.352;2023-09-19T16:58:47;4.40;;;1.20;;
22468;SDS011;11401;50.792;4.352;2023-09-19T17:01:19;6.28;;;1.67;;
22468;SDS011;11401;50.792;4.352;2023-09-19T17:03:51;5.88;;;1.73;;
22468;SDS011;11401;50.792;4.352;2023-09-19T17:06:19;2.83;;;1.70;;
22468;SDS011;11401;50.792;4.352;2023-09-19T17:08:49;3.47;;;1.77;;
22468;SDS011;11401;50.792;4.352;2023-09-19T17:11:17;2.10;;;1.30;;
22468;SDS011;11401;50.792;4.352;2023-09-19T17:13:47;2.03;;;1.38;;
22468;SDS011;11401;50.792;4.352;2023-09-19T17:16:18;7.03;;;1.73;;
22468;SDS011;11401;50.792;4.352;2023-09-19T17:18:52;2.10;;;1.50;;
22468;SDS011;11401;50.792;4.352;2023-09-19T17:21:21;7.90;;;1.73;;
22468;SDS011;11401;50.792;4.352;2023-09-19T17:23:49;5.72;;;2.35;;
22468;SDS011;11401;50.792;4.352;2023-09-19T17:26:17;5.85;;;2.08;;
22468;SDS011;11401;50.792;4.352;2023-09-19T17:28:45;2.60;;;1.60;;
22468;SDS011;11401;50.792;4.352;2023-09-19T17:31:14;4.38;;;1.83;;
22468;SDS011;11401;50.792;4.352;2023-09-19T17:33:49;3.47;;;1.65;;
22468;SDS011;11401;50.792;4.352;2023-09-19T17:36:21;4.38;;;1.90;;
22468;SDS011;11401;50.792;4.352;2023-09-19T17:38:53;4.65;;;1.83;;
22468;SDS011;11401;50.792;4.352;2023-09-19T17:41:22;4.93;;;1.40;;
22468;SDS011;11401;50.792;4.352;2023-09-19T17:43:56;6.97;;;1.77;;
22468;SDS011;11401;50.792;4.352;2023-09-19T17:46:24;3.85;;;1.52;;
22468;SDS011;11401;50.792;4.352;2023-09-19T17:48:53;2.38;;;1.33;;
22468;SDS011;11401;50.792;4.352;2023-09-19T17:51:24;2.95;;;1.63;;
22468;SDS011;11401;50.792;4.352;2023-09-19T17:53:53;5.22;;;1.80;;
22468;SDS011;11401;50.792;4.352;2023-09-19T17:56:23;3.05;;;1.55;;
22468;SDS011;11401;50.792;4.352;2023-09-19T17:58:51;3.03;;;1.52;;
22468;SDS011;11401;50.792;4.352;2023-09-19T18:01:22;5.78;;;1.90;;
22468;SDS011;11401;50.792;4.352;2023-09-19T18:03:54;3.75;;;1.42;;
22468;SDS011;11401;50.792;4.352;2023-09-19T18:06:26;4.93;;;1.92;;
22468;SDS011;11401;50.792;4.352;2023-09-19T18:08:53;5.78;;;2.00;;
22468;SDS011;11401;50.792;4.352;2023-09-19T18:11:24;3.53;;;1.48;;
22468;SDS011;11401;50.792;4.352;2023-09-19T18:13:54;5.30;;;1.60;;
22468;SDS011;11401;50.792;4.352;2023-09-19T18:16:22;5.20;;;1.25;;
22468;SDS011;11401;50.792;4.352;2023-09-19T18:18:54;5.72;;;1.90;;
22468;SDS011;11401;50.792;4.352;2023-09-19T18:21:23;4.03;;;1.67;;
22468;SDS011;11401;50.792;4.352;2023-09-19T18:23:57;3.92;;;1.50;;
22468;SDS011;11401;50.792;4.352;2023-09-19T18:26:30;4.38;;;1.50;;
22468;SDS011;11401;50.792;4.352;2023-09-19T18:28:59;6.25;;;1.50;;
22468;SDS011;11401;50.792;4.352;2023-09-19T18:31:26;4.47;;;1.75;;
22468;SDS011;11401;50.792;4.352;2023-09-19T18:33:55;3.22;;;1.77;;
22468;SDS011;11401;50.792;4.352;2023-09-19T18:36:23;6.38;;;1.85;;
22468;SDS011;11401;50.792;4.352;2023-09-19T18:38:50;3.50;;;1.65;;
22468;SDS011;11401;50.792;4.352;2023-09-19T18:41:18;9.73;;;2.40;;
22468;SDS011;11401;50.792;4.352;2023-09-19T18:43:45;2.25;;;1.52;;
22468;SDS011;11401;50.792;4.352;2023-09-19T18:46:13;2.78;;;1.50;;
22468;SDS011;11401;50.792;4.352;2023-09-19T18:48:41;3.58;;;2.08;;
22468;SDS011;11401;50.792;4.352;2023-09-19T18:51:14;5.10;;;2.08;;
22468;SDS011;11401;50.792;4.352;2023-09-19T18:53:44;6.55;;;2.00;;
22468;SDS011;11401;50.792;4.352;2023-09-19T18:56:26;7.47;;;2.10;;
22468;SDS011;11401;50.792;4.352;2023-09-19T18:58:54;5.43;;;1.92;;
22468;SDS011;11401;50.792;4.352;2023-09-19T19:01:21;4.80;;;2.55;;
22468;SDS011;11401;50.792;4.352;2023-09-19T19:03:51;5.65;;;2.45;;
22468;SDS011;11401;50.792;4.352;2023-09-19T19:06:19;8.02;;;2.55;;
22468;SDS011;11401;50.792;4.352;2023-09-19T19:08:48;4.47;;;2.10;;
22468;SDS011;11401;50.792;4.352;2023-09-19T19:11:17;5.57;;;2.13;;
22468;SDS011;11401;50.792;4.352;2023-09-19T19:13:51;3.85;;;1.98;;
22468;SDS011;11401;50.792;4.352;2023-09-19T19:16:18;7.80;;;1.60;;
22468;SDS011;11401;50.792;4.352;2023-09-19T19:18:46;6.60;;;1.92;;
22468;SDS011;11401;50.792;4.352;2023-09-19T19:21:15;5.75;;;1.77;;
22468;SDS011;11401;50.792;4.352;2023-09-19T19:23:43;4.13;;;1.80;;
22468;SDS011;11401;50.792;4.352;2023-09-19T19:26:10;7.55;;;1.95;;
22468;SDS011;11401;50.792;4.352;2023-09-19T19:28:38;6.50;;;1.83;;
22468;SDS011;11401;50.792;4.352;2023-09-19T19:31:07;3.70;;;1.75;;
22468;SDS011;11401;50.792;4.352;2023-09-19T19:33:37;4.40;;;1.67;;
22468;SDS011;11401;50.792;4.352;2023-09-19T19:36:05;2.60;;;1.30;;
22468;SDS011;11401;50.792;4.352;2023-09-19T19:38:38;2.15;;;1.55;;
22468;SDS011;11401;50.792;4.352;2023-09-19T19:41:06;5.18;;;2.15;;
22468;SDS011;11401;50.792;4.352;2023-09-19T19:43:34;4.22;;;1.70;;
22468;SDS011;11401;50.792;4.352;2023-09-19T19:46:02;6.47;;;1.80;;
22468;SDS011;11401;50.792;4.352;2023-09-19T19:48:32;5.45;;;1.98;;
22468;SDS011;11401;50.792;4.352;2023-09-19T19:51:05;6.93;;;1.92;;
22468;SDS011;11401;50.792;4.352;2023-09-19T19:53:39;4.30;;;1.75;;
22468;SDS011;11401;50.792;4.352;2023-09-19T19:56:06;4.38;;;1.75;;
22468;SDS011;11401;50.792;4.352;2023-09-19T19:58:34;1.70;;;1.45;;
22468;SDS011;11401;50.792;4.352;2023-09-19T20:01:02;9.02;;;2.15;;
22468;SDS011;11401;50.792;4.352;2023-09-19T20:03:33;10.82;;;2.58;;
22468;SDS011;11401;50.792;4.352;2023-09-19T20:06:02;4.97;;;1.70;;
22468;SDS011;11401;50.792;4.352;2023-09-19T20:08:29;6.72;;;2.08;;
22468;SDS011;11401;50.792;4.352;2023-09-19T20:11:03;3.95;;;1.67;;
22468;SDS011;11401;50.792;4.352;2023-09-19T20:13:33;4.93;;;1.80;;
22468;SDS011;11401;50.792;4.352;2023-09-19T20:16:01;5.43;;;1.85;;
22468;SDS011;11401;50.792;4.352;2023-09-19T20:18:31;4.53;;;2.05;;
22468;SDS011;11401;50.792;4.352;2023-09-19T20:21:03;7.15;;;1.90;;
22468;SDS011;11401;50.792;4.352;2023-09-19T20:23:39;3.03;;;1.63;;
22468;SDS011;11401;50.792;4.352;2023-09-19T20:26:08;3.95;;;1.55;;
22468;SDS011;11401;50.792;4.352;2023-09-19T20:28:37;5.40;;;1.65;;
22468;SDS011;11401;50.792;4.352;2023-09-19T20:31:08;3.92;;;1.88;;
22468;SDS011;11401;50.792;4.352;2023-09-19T20:33:37;3.30;;;1.30;;
22468;SDS011;11401;50.792;4.352;2023-09-19T20:36:05;4.28;;;1.70;;
22468;SDS011;11401;50.792;4.352;2023-09-19T20:38:34;3.38;;;1.75;;
22468;SDS011;11401;50.792;4.352;2023-09-19T20:41:08;4.53;;;1.80;;
22468;SDS011;11401;50.792;4.352;2023-09-19T20:43:36;6.18;;;1.63;;
22468;SDS011;11401;50.792;4.352;2023-09-19T20:46:07;4.75;;;2.15;;
22468;SDS011;11401;50.792;4.352;2023-09-19T20:48:34;3.08;;;1.40;;
22468;SDS011;11401;50.792;4.352;2023-09-19T20:51:08;3.58;;;1.75;;
22468;SDS011;11401;50.792;4.352;2023-09-19T20:53:40;4.90;;;1.90;;
22468;SDS011;11401;50.792;4.352;2023-09-19T20:56:08;4.63;;;1.67;;
22468;SDS011;11401;50.792;4.352;2023-09-19T20:58:38;5.93;;;2.03;;
22468;SDS011;11401;50.792;4.352;2023-09-19T21:01:07;3.05;;;1.80;;
22468;SDS011;11401;50.792;4.352;2023-09-19T21:03:35;5.03;;;1.92;;
22468;SDS011;11401;50.792;4.352;2023-09-19T21:06:07;4.65;;;2.05;;
22468;SDS011;11401;50.792;4.352;2023-09-19T21:08:37;2.10;;;1.35;;
22468;SDS011;11401;50.792;4.352;2023-09-19T21:11:12;4.53;;;1.73;;
22468;SDS011;11401;50.792;4.352;2023-09-19T21:13:42;4.32;;;1.90;;
22468;SDS011;11401;50.792;4.352;2023-09-19T21:16:10;3.78;;;1.85;;
22468;SDS011;11401;50.792;4.352;2023-09-19T21:18:38;6.25;;;2.28;;
22468;SDS011;11401;50.792;4.352;2023-09-19T21:21:06;3.45;;;1.92;;
22468;SDS011;11401;50.792;4.352;2023-09-19T21:23:40;3.28;;;1.60;;
22468;SDS011;11401;50.792;4.352;2023-09-19T21:26:08;5.05;;;1.77;;
22468;SDS011;11401;50.792;4.352;2023-09-19T21:28:37;1.83;;;1.63;;
22468;SDS011;11401;50.792;4.352;2023-09-19T21:31:08;3.30;;;1.63;;
22468;SDS011;11401;50.792;4.352;2023-09-19T21:33:38;5.30;;;2.10;;
22468;SDS011;11401;50.792;4.352;2023-09-19T21:36:08;4.93;;;1.85;;
